• Join FlightAware (Why Join?)
  • Login
  • US Flag 
12:51AM EDT


 

Airport Tracker/Info


-or-


 

Live Flight TrackerFlight Track Log ✈ AAL1870 ✈ 26-Jul-2013 ✈ KLAX - KORD

Flight Track Log - Related Links

Times and Time Zones

All times are in EDT time to prevent confusion due to time zone crossing. See the AAL1870 flight status page for this flight to view local times or setup timezone preferences in your user account.

Time Position Orientation Groundspeed Altitude Reporting Facility
EDT Latitude Longitude Course Direction KTS MPH feet Rate Location/Type
08:47PM 33.9358 -118.4333 54° Northeast 180 207 1,300  Level Los Angeles Center
08:48PM 33.9189 -118.5117 255° West 237 273 3,000 2,220 Climbing Los Angeles Center
08:49PM 34.1356 -118.0621 59° Northeast  Level FlightAware Approximate
08:49PM 33.8808 -118.5986 242° Southwest 281 323 6,000  Level Los Angeles Center
08:50PM 34.2030 -117.9274 59° Northeast  Level FlightAware Approximate
08:50PM 33.8119 -118.5817 168° South 292 336 8,800  Level Los Angeles Center
08:51PM 34.2717 -117.7937 46° Northeast  Level FlightAware Approximate
08:51PM 33.8394 -118.4867 71° East 315 362 10,900  Level Los Angeles Center
08:52PM 34.3549 -117.6735 59° Northeast  Level FlightAware Approximate
08:52PM 33.9233 -118.4408 24° Northeast 354 407 12,900  Level Los Angeles Center
08:53PM 34.4254 -117.5465 54° Northeast  Level FlightAware Approximate
08:53PM 33.9908 -118.3442 50° Northeast 376 433 15,300  Level Los Angeles Center
08:54PM 34.0467 -118.2303 59° Northeast 390 449 17,500 1,920 Climbing Los Angeles Center
08:55PM 34.1119 -118.1167 55° Northeast 407 468 19,300 2,160 Climbing Los Angeles Center
08:57PM 34.1908 -117.9772 56° Northeast 416 479 22,000 1,980 Climbing Los Angeles Center
08:58PM 34.2583 -117.8583 55° Northeast 428 493 23,500 1,440 Climbing Los Angeles Center
08:59PM 34.3278 -117.7342 56° Northeast 442 509 25,000 1,500 Climbing Los Angeles Center
09:00PM 34.4022 -117.5986 56° Northeast 454 522 26,700 1,440 Climbing Los Angeles Center
09:01PM 34.4725 -117.4706 56° Northeast 459 528 28,000 1,140 Climbing Los Angeles Center
09:02PM 34.5456 -117.3397 56° Northeast 470 541 29,100 1,080 Climbing Los Angeles Center
09:03PM 34.6325 -117.2186 49° Northeast 481 554 30,300 1,200 Climbing Los Angeles Center
09:04PM 34.7200 -117.0964 49° Northeast 483 556 31,600 1,320 Climbing Los Angeles Center
09:05PM 34.8258 -116.9508 48° Northeast 484 557 33,100 1,320 Climbing Los Angeles Center
09:06PM 34.9119 -116.8283 49° Northeast 480 552 34,400 1,140 Climbing Los Angeles Center
09:07PM 34.9997 -116.7064 49° Northeast 480 552 35,500 1,020 Climbing Los Angeles Center
09:08PM 35.0864 -116.5847 49° Northeast 479 551 36,600 720 Climbing Los Angeles Center
09:09PM 35.1717 -116.4642 49° Northeast 475 547 37,000 180 Climbing Los Angeles Center
09:10PM 35.2772 -116.3175 49° Northeast 479 551 37,000  Level Los Angeles Center
09:11PM 35.3628 -116.1936 50° Northeast 478 550 37,000  Level Los Angeles Center
09:12PM 35.4478 -116.0697 50° Northeast 477 549 37,000  Level Los Angeles Center
09:13PM 35.5342 -115.9483 49° Northeast 474 545 37,000  Level Los Angeles Center
09:14PM 35.6289 -115.8131 49° Northeast 475 547 37,000  Level Los Angeles Center
09:15PM 35.7142 -115.6908 49° Northeast 473 544 37,000  Level Los Angeles Center
09:16PM 35.8003 -115.5658 50° Northeast 480 552 37,000  Level Los Angeles Center
09:17PM 35.8858 -115.4417 50° Northeast 479 551 37,000  Level Los Angeles Center
09:18PM 35.9825 -115.2867 52° Northeast 480 552 37,000  Level Los Angeles Center
09:19PM 36.0492 -115.1478 59° Northeast 473 544 37,000  Level Los Angeles Center
09:20PM 36.1189 -115.0067 59° Northeast 483 556 37,000 180 Level Los Angeles Center
09:21PM 36.1897 -114.8683 58° Northeast 481 554 37,400 600 Climbing Los Angeles Center
09:22PM 36.2583 -114.7292 59° Northeast 476 548 38,300 780 Climbing Los Angeles Center
09:23PM 36.3411 -114.5622 58° Northeast 475 547 39,000 300 Climbing Los Angeles Center
09:24PM 36.4097 -114.4233 58° Northeast 474 545 39,000  Level Los Angeles Center
09:25PM 36.4781 -114.2839 59° Northeast 474 545 39,000  Level Los Angeles Center
09:26PM 36.5508 -114.1314 59° Northeast 476 548 39,000  Level Los Angeles Center
09:27PM 36.6189 -113.9919 59° Northeast 474 545 39,000  Level Los Angeles Center
09:29PM 36.6789 -113.8475 63° Northeast 471 542 39,000  Level Los Angeles Center
09:30PM 36.7414 -113.7050 61° Northeast 470 541 39,000  Level Los Angeles Center
09:31PM 36.8019 -113.5625 62° Northeast 468 539 39,000  Level Los Angeles Center
09:32PM 36.8617 -113.4206 62° Northeast 464 534 39,000  Level Los Angeles Center
09:33PM 36.9378 -113.2508 61° Northeast 469 540 39,000  Level Los Angeles Center
09:34PM 37.0128 -113.1181 55° Northeast 470 541 39,000  Level Los Angeles Center
09:35PM 37.0883 -112.9847 55° Northeast 471 542 39,000  Level Los Angeles Center
09:36PM 37.1608 -112.8478 56° Northeast 474 545 39,000  Level Los Angeles Center
09:37PM 37.2267 -112.7047 60° Northeast 478 550 39,000  Level Los Angeles Center
09:38PM 37.3061 -112.5328 60° Northeast 479 551 39,000  Level Los Angeles Center
09:39PM 37.3711 -112.3892 60° Northeast 478 550 39,000  Level Los Angeles Center
09:40PM 37.4381 -112.2467 59° Northeast 478 550 39,000  Level Los Angeles Center
09:41PM 37.5042 -112.1017 60° Northeast 478 550 39,000  Level Los Angeles Center
09:42PM 37.5708 -111.9564 60° Northeast 480 552 39,000  Level Los Angeles Center
09:43PM 37.6383 -111.8089 60° Northeast 484 557 39,000  Level Los Angeles Center
09:44PM 37.6656 -111.7503 60° Northeast 490 564 39,000  Level Denver Center
09:44PM 37.7322 -111.5997 61° Northeast 492 566 39,000  Level Salt Lake Center
09:45PM 37.8142 -111.4186 60° Northeast 495 570 39,000  Level Salt Lake Center
09:46PM 37.8814 -111.2667 61° Northeast 496 571 39,000  Level Salt Lake Center
09:47PM 37.9506 -111.1153 60° Northeast 498 573 39,000  Level Salt Lake Center
09:48PM 38.0167 -110.9606 61° Northeast 500 575 39,000  Level Salt Lake Center
09:50PM 38.0850 -110.8131 59° Northeast 496 571 39,000  Level Salt Lake Center
09:51PM 38.1606 -110.6411 61° Northeast 500 575 39,000  Level Salt Lake Center
09:52PM 38.2250 -110.4936 61° Northeast 499 574 39,000  Level Salt Lake Center
09:53PM 38.2978 -110.3208 62° Northeast 498 573 39,000  Level Salt Lake Center
09:54PM 38.3633 -110.1739 60° Northeast 498 573 39,000  Level Salt Lake Center
09:55PM 38.4378 -110.0022 61° Northeast 496 571 39,000  Level Salt Lake Center
09:56PM 38.4978 -109.8511 63° Northeast 498 573 39,000  Level Salt Lake Center
09:57PM 38.5619 -109.7050 61° Northeast 495 570 39,000  Level Salt Lake Center
09:58PM 38.6342 -109.5322 62° Northeast 494 568 39,000  Level Salt Lake Center
09:59PM 38.6972 -109.3842 61° Northeast 496 571 39,000  Level Salt Lake Center
10:00PM 38.7694 -109.2122 62° Northeast 493 567 39,000  Level Salt Lake Center
10:01PM 38.8322 -109.0661 61° Northeast 491 565 39,000  Level Salt Lake Center
10:02PM 38.9253 -108.8389 62° Northeast 496 571 39,000  Level Denver Center
10:03PM 38.9872 -108.6894 62° Northeast 496 571 39,000  Level Denver Center
10:04PM 39.0594 -108.5117 62° Northeast 504 580 39,000  Level Denver Center
10:05PM 39.1211 -108.3578 63° Northeast 507 583 39,000  Level Denver Center
10:06PM 39.1956 -108.1817 61° Northeast 499 574 39,000  Level Denver Center
10:07PM 39.2547 -108.0331 63° Northeast 489 563 39,000  Level Denver Center
10:08PM 39.3258 -107.8581 62° Northeast 494 568 39,000  Level Denver Center
10:09PM 39.3844 -107.7081 63° Northeast 491 565 39,000  Level Denver Center
10:10PM 39.4442 -107.5583 63° Northeast 491 565 39,000  Level Denver Center
10:11PM 39.5114 -107.3822 64° Northeast 491 565 39,000  Level Denver Center
10:12PM 39.5728 -107.2297 62° Northeast 497 572 39,000  Level Denver Center
10:13PM 39.6444 -107.0494 63° Northeast 504 580 39,000  Level Denver Center
10:15PM 39.7000 -106.9061 63° Northeast 507 583 39,000  Level Denver Center
10:16PM 39.7775 -106.7094 63° Northeast 502 578 39,000  Level Denver Center
10:17PM 39.8528 -106.5136 63° Northeast 501 577 39,000  Level Denver Center
10:18PM 39.9092 -106.3667 63° Northeast 500 575 39,000  Level Denver Center
10:19PM 39.9703 -106.2053 64° Northeast 497 572 39,000  Level Denver Center
10:20PM 40.0444 -106.0122 63° Northeast 495 570 39,000  Level Denver Center
10:21PM 40.1044 -105.8500 64° Northeast 496 571 39,000  Level Denver Center
10:22PM 40.1642 -105.6883 64° Northeast 495 570 39,000  Level Denver Center
10:23PM 40.2122 -105.5583 64° Northeast 495 570 39,000  Level Denver Center
10:24PM 40.2814 -105.3664 65° Northeast 488 562 39,000  Level Denver Center
10:25PM 40.3411 -105.2058 64° Northeast 489 563 39,000  Level Denver Center
10:26PM 40.4014 -105.0439 64° Northeast 491 565 39,000  Level Denver Center
10:27PM 40.4614 -104.8775 65° Northeast 500 575 39,000  Level Denver Center
10:28PM 40.5317 -104.6819 65° Northeast 494 568 39,000  Level Denver Center
10:29PM 40.5897 -104.5175 65° Northeast 499 574 39,000  Level Denver Center
10:30PM 40.6464 -104.3542 65° Northeast 493 567 39,000  Level Denver Center
10:31PM 40.7033 -104.1906 65° Northeast 493 567 39,000  Level Denver Center
10:32PM 40.7617 -104.0336 64° Northeast 471 542 39,000  Level Denver Center
10:33PM 40.8194 -103.8678 65° Northeast 493 567 39,000  Level Denver Center
10:34PM 40.8764 -103.7039 65° Northeast 493 567 39,000  Level Denver Center
10:35PM 40.9336 -103.5392 65° Northeast 494 568 39,000  Level Denver Center
10:36PM 41.0011 -103.3422 66° East 496 571 39,000  Level Denver Center
10:37PM 41.0556 -103.1836 65° Northeast 495 570 39,000  Level Denver Center
10:38PM 41.1181 -102.9997 66° East 492 566 39,000  Level Denver Center
10:39PM 41.1753 -102.8303 66° East 492 566 39,000  Level Denver Center
10:40PM 41.2328 -102.6581 66° East 489 563 39,000  Level Denver Center
10:41PM 41.2819 -102.5117 66° East 495 570 39,000  Level Denver Center
10:43PM 41.3450 -102.3244 66° East 496 571 39,000  Level Denver Center
10:44PM 41.3975 -102.1633 66° East 497 572 39,000  Level Denver Center
10:45PM 41.4597 -101.9756 66° East 495 570 39,000  Level Denver Center
10:46PM 41.5131 -101.8153 66° East 494 568 39,000  Level Denver Center
10:47PM 41.5733 -101.6267 67° East 494 568 39,000  Level Denver Center
10:48PM 41.6264 -101.4647 66° East 495 570 39,000  Level Denver Center
10:49PM 41.6772 -101.3025 67° East 493 567 39,000  Level Denver Center
10:50PM 41.7386 -101.1103 67° East 498 573 39,000  Level Denver Center
10:51PM 41.7897 -100.9483 67° East 494 568 39,000  Level Denver Center
10:52PM 41.8478 -100.7597 67° East 490 564 39,000  Level Denver Center
10:53PM 41.8986 -100.5975 67° East 492 566 39,000  Level Denver Center
10:54PM 41.9569 -100.4067 68° East 492 566 39,000  Level Denver Center
10:55PM 42.0075 -100.2439 67° East 493 567 39,000  Level Denver Center
10:56PM 42.0569 -100.0817 68° East 491 565 39,000  Level Denver Center
10:57PM 42.1142 -99.8894 68° East 493 567 39,000  Level Denver Center
10:58PM 42.1653 -99.7242 67° East 499 574 39,000  Level Denver Center
10:59PM 42.2211 -99.5364 68° East 499 574 39,000  Level Denver Center
11:00PM 42.2725 -99.3628 68° East 498 573 39,000  Level Denver Center
11:01PM 42.3236 -99.1897 68° East 495 570 39,000  Level Denver Center
11:02PM 42.3756 -99.0153 68° East 497 572 39,000  Level Denver Center
11:03PM 42.4364 -98.8092 68° East 494 568 39,000  Level Minneapolis Center
11:04PM 42.4744 -98.6283 74° East 497 572 39,000  Level Minneapolis Center
11:05PM 42.4839 -98.4333 86° East 517 595 39,000  Level Minneapolis Center
11:06PM 42.4947 -98.1994 86° East 517 595 39,000  Level Minneapolis Center
11:07PM 42.5042 -98.0044 86° East 517 595 39,000  Level Minneapolis Center
11:08PM 42.5125 -97.8258 86° East 517 595 39,000  Level Minneapolis Center
11:09PM 42.5200 -97.6350 87° East 509 586 39,000  Level Minneapolis Center
11:10PM 42.5278 -97.4431 87° East 511 588 39,000  Level Minneapolis Center
11:11PM 42.5347 -97.2517 87° East 508 585 39,000  Level Minneapolis Center
11:12PM 42.5417 -97.0608 87° East 507 583 39,000  Level Minneapolis Center
11:14PM 42.5486 -96.8700 87° East 505 581 39,000  Level Minneapolis Center
11:15PM 42.5578 -96.6386 87° East 510 587 39,000  Level Minneapolis Center
11:16PM 42.5642 -96.4475 87° East 508 585 39,000  Level Minneapolis Center
11:17PM 42.5689 -96.2542 88° East 510 587 39,000  Level Minneapolis Center
11:18PM 42.5747 -96.0633 88° East 507 583 39,000  Level Minneapolis Center
11:19PM 42.5803 -95.8744 88° East 503 579 39,000  Level Minneapolis Center
11:20PM 42.5847 -95.6836 88° East 503 579 39,000  Level Minneapolis Center
11:21PM 42.5892 -95.4947 88° East 501 577 39,000  Level Minneapolis Center
11:22PM 42.5933 -95.3064 88° East 499 574 39,000  Level Minneapolis Center
11:23PM 42.5975 -95.1164 88° East 500 575 39,000  Level Minneapolis Center
11:24PM 42.6008 -94.9250 89° East 505 581 39,000  Level Minneapolis Center
11:25PM 42.6053 -94.7347 88° East 504 580 39,000  Level Minneapolis Center
11:26PM 42.6067 -94.5469 89° East 510 587 39,000  Level Minneapolis Center
11:27PM 42.6094 -94.3197 89° East 509 586 39,000  Level Minneapolis Center
11:28PM 42.6056 -94.1289 92° East 510 587 39,000  Level Minneapolis Center
11:29PM 42.5992 -93.9372 93° East 513 590 39,000  Level Minneapolis Center
11:30PM 42.5925 -93.7458 93° East 514 592 39,000  Level Minneapolis Center
11:31PM 42.5856 -93.5533 93° East 515 593 39,000  Level Minneapolis Center
11:32PM 42.5800 -93.3625 92° East 513 590 39,000  Level Minneapolis Center
11:33PM 42.5722 -93.1711 93° East 513 590 39,000  Level Minneapolis Center
11:34PM 42.5667 -92.9431 92° East 510 587 39,000  Level Minneapolis Center
11:35PM 42.5617 -92.7511 92° East 511 588 39,000  Level Chicago Center
11:36PM 42.5558 -92.5589 92° East 516 594 39,000  Level Chicago Center
11:37PM 42.5511 -92.3653 92° East 518 596 39,000  Level Chicago Center
11:38PM 42.5467 -92.1747 92° East 513 590 39,000  Level Chicago Center
11:39PM 42.5394 -91.9836 93° East 516 594 39,000  Level Chicago Center
11:40PM 42.5322 -91.7592 92° East 508 585 39,000  Level Chicago Center
11:41PM 42.5256 -91.5717 93° East 511 588 39,000  Level Chicago Center
11:42PM 42.5194 -91.3853 92° East 508 585 39,000  Level Chicago Center
11:43PM 42.5122 -91.2003 93° East 503 579 39,000  Level Chicago Center
11:44PM 42.5044 -91.0122 93° East 506 582 39,000  Level Chicago Center
11:45PM 42.4961 -90.8253 93° East 504 580 39,000  Level Chicago Center
11:46PM 42.4861 -90.6006 93° East 504 580 39,000 -600 Level Chicago Center
11:47PM 42.4778 -90.4150 93° East 499 574 37,900 -2,040 Descending Chicago Center
11:48PM 42.4686 -90.2289 94° East 500 575 34,900 -3,120 Descending Chicago Center
11:49PM 42.4619 -90.0386 93° East 511 588 31,600 -3,060 Descending Chicago Center
11:50PM 42.4517 -89.8533 94° East 517 595 28,800 -3,000 Descending Chicago Center
11:51PM 42.4394 -89.6308 94° East 508 585 25,600 -2,940 Descending Chicago Center
11:52PM 42.4289 -89.4456 94° East 496 571 22,900 -2,580 Descending Chicago Center
11:53PM 42.4197 -89.2761 94° East 461 531 20,400 -2,460 Descending Chicago Center
11:54PM 42.4117 -89.1169 94° East 432 497 18,000 -2,400 Descending Chicago Center
11:55PM 42.4017 -88.9583 95° East 424 488 15,600 -2,340 Descending Chicago Center
11:56PM 42.3936 -88.8106 94° East 402 463 13,300 -2,280 Descending Chicago Center
11:57PM 42.3847 -88.6656 95° East 389 448 11,000 -1,680 Descending Chicago Center
11:58PM 42.3767 -88.5314 95° East 363 418 10,000 -540 Descending Chicago Center
11:59PM 42.3478 -88.4131 108° East 340 391 10,000  Level Chicago Center
12:00AM 42.2869 -88.2989 126° Southeast 338 389 10,000  Level Chicago Center
12:01AM 42.2278 -88.2008 129° Southeast 338 389 10,000  Level Chicago Center
12:02AM 42.1558 -88.1281 143° Southeast 335 386 10,000  Level Chicago Center
12:03AM 42.0750 -88.0806 156° South 319 367 10,000 -300 Level Chicago Center
12:04AM 42.0675 -87.9789 96° East 277 319 9,400 -1,140 Descending Chicago Center
12:05AM 42.0725 -87.8811 86° East 264 304 7,800 -1,200 Descending Chicago Center
12:06AM 42.0786 -87.7914 85° East 247 284 7,000 -420 Descending Chicago Center
12:07AM 42.0833 -87.7144 85° East 216 249 7,000  Level Chicago Center
12:08AM 42.0897 -87.6389 83° East 206 237 7,000  Level Chicago Center
12:09AM 42.0936 -87.5633 86° East 203 234 7,100  Climbing Chicago Center
12:10AM 42.0981 -87.4856 86° East 208 239 7,000 -60 Descending Chicago Center
12:11AM 42.0908 -87.4122 98° East 209 241 7,000 -660 Level Chicago Center
12:13AM 42.0306 -87.3989 171° South 187 215 5,700 -1,380 Descending Chicago Center
12:14AM 41.9944 -87.4458 224° Southwest 185 213 4,300 -900 Descending Chicago Center
12:15AM 41.9683 -87.5019 238° Southwest 182 209 4,000 -180 Descending Chicago Center
12:16AM 41.9678 -87.5683 269° West 180 207 4,000  Level Chicago Center
12:17AM 41.9689 -87.6350 271° West 179 206 4,000 -360 Level Chicago Center
12:18AM 41.9683 -87.7000 269° West 178 205 3,300 -840 Descending Chicago Center
12:19AM 41.9692 -87.7658 271° West 178 205 2,400 -900 Descending Chicago Center
12:20AM 41.9692 -87.8208 270° West 168 193 1,600 -720 Descending Chicago Center
12:21AM 41.9692 -87.8683 270° West 149 171 1,000 -600 Descending Chicago Center